sensor_id;sensor_type;location;lat;lon;timestamp;P1;durP1;ratioP1;P2;durP2;ratioP2
6394;SDS011;3230;42.588;23.358;2023-11-21T00:01:15;18.20;;;5.60;;
6394;SDS011;3230;42.588;23.358;2023-11-21T00:03:40;16.63;;;5.23;;
6394;SDS011;3230;42.588;23.358;2023-11-21T00:06:06;8.50;;;3.00;;
6394;SDS011;3230;42.588;23.358;2023-11-21T00:08:34;3.25;;;1.70;;
6394;SDS011;3230;42.588;23.358;2023-11-21T00:11:00;8.27;;;3.57;;
6394;SDS011;3230;42.588;23.358;2023-11-21T00:13:26;7.22;;;3.17;;
6394;SDS011;3230;42.588;23.358;2023-11-21T00:15:52;7.73;;;2.97;;
6394;SDS011;3230;42.588;23.358;2023-11-21T00:18:17;17.77;;;5.33;;
6394;SDS011;3230;42.588;23.358;2023-11-21T00:20:43;10.37;;;3.60;;
6394;SDS011;3230;42.588;23.358;2023-11-21T00:23:08;19.40;;;5.40;;
6394;SDS011;3230;42.588;23.358;2023-11-21T00:25:34;15.00;;;4.70;;
6394;SDS011;3230;42.588;23.358;2023-11-21T00:28:00;20.60;;;4.70;;
6394;SDS011;3230;42.588;23.358;2023-11-21T00:30:26;8.30;;;2.95;;
6394;SDS011;3230;42.588;23.358;2023-11-21T00:32:53;5.43;;;2.45;;
6394;SDS011;3230;42.588;23.358;2023-11-21T00:35:19;5.07;;;1.97;;
6394;SDS011;3230;42.588;23.358;2023-11-21T00:37:45;4.67;;;1.50;;
6394;SDS011;3230;42.588;23.358;2023-11-21T00:40:10;4.23;;;1.87;;
6394;SDS011;3230;42.588;23.358;2023-11-21T00:42:36;11.60;;;4.13;;
6394;SDS011;3230;42.588;23.358;2023-11-21T00:45:01;13.27;;;4.33;;
6394;SDS011;3230;42.588;23.358;2023-11-21T00:47:27;15.90;;;4.37;;
6394;SDS011;3230;42.588;23.358;2023-11-21T00:49:52;9.23;;;3.80;;
6394;SDS011;3230;42.588;23.358;2023-11-21T00:52:18;6.93;;;3.07;;
6394;SDS011;3230;42.588;23.358;2023-11-21T00:54:43;2.70;;;1.77;;
6394;SDS011;3230;42.588;23.358;2023-11-21T00:57:09;2.60;;;1.48;;
6394;SDS011;3230;42.588;23.358;2023-11-21T00:59:37;1.63;;;1.30;;
6394;SDS011;3230;42.588;23.358;2023-11-21T01:02:02;1.30;;;1.20;;
6394;SDS011;3230;42.588;23.358;2023-11-21T01:04:29;1.25;;;1.00;;
6394;SDS011;3230;42.588;23.358;2023-11-21T01:06:56;2.47;;;1.20;;
6394;SDS011;3230;42.588;23.358;2023-11-21T01:09:22;1.30;;;1.10;;
6394;SDS011;3230;42.588;23.358;2023-11-21T01:11:48;2.53;;;1.55;;
6394;SDS011;3230;42.588;23.358;2023-11-21T01:14:14;1.63;;;1.30;;
6394;SDS011;3230;42.588;23.358;2023-11-21T01:16:39;2.20;;;1.50;;
6394;SDS011;3230;42.588;23.358;2023-11-21T01:19:05;2.47;;;1.47;;
6394;SDS011;3230;42.588;23.358;2023-11-21T01:21:31;1.53;;;1.10;;
6394;SDS011;3230;42.588;23.358;2023-11-21T01:23:56;0.80;;;0.80;;
6394;SDS011;3230;42.588;23.358;2023-11-21T01:26:22;2.40;;;0.80;;
6394;SDS011;3230;42.588;23.358;2023-11-21T01:28:48;0.70;;;0.70;;
6394;SDS011;3230;42.588;23.358;2023-11-21T01:31:14;1.03;;;0.97;;
6394;SDS011;3230;42.588;23.358;2023-11-21T01:33:40;1.77;;;1.38;;
6394;SDS011;3230;42.588;23.358;2023-11-21T01:36:06;5.23;;;2.30;;
6394;SDS011;3230;42.588;23.358;2023-11-21T01:38:32;7.83;;;2.23;;
6394;SDS011;3230;42.588;23.358;2023-11-21T01:40:57;6.17;;;2.20;;
6394;SDS011;3230;42.588;23.358;2023-11-21T01:43:25;6.75;;;2.78;;
6394;SDS011;3230;42.588;23.358;2023-11-21T01:45:51;7.37;;;2.37;;
6394;SDS011;3230;42.588;23.358;2023-11-21T01:48:17;3.23;;;1.60;;
6394;SDS011;3230;42.588;23.358;2023-11-21T01:50:43;2.35;;;1.75;;
6394;SDS011;3230;42.588;23.358;2023-11-21T01:53:10;2.88;;;1.08;;
6394;SDS011;3230;42.588;23.358;2023-11-21T01:55:38;3.05;;;1.80;;
6394;SDS011;3230;42.588;23.358;2023-11-21T01:58:05;3.97;;;2.20;;
6394;SDS011;3230;42.588;23.358;2023-11-21T02:00:32;13.38;;;3.70;;
6394;SDS011;3230;42.588;23.358;2023-11-21T02:02:58;11.60;;;4.20;;
6394;SDS011;3230;42.588;23.358;2023-11-21T02:05:24;7.80;;;3.23;;
6394;SDS011;3230;42.588;23.358;2023-11-21T02:07:51;5.35;;;3.13;;
6394;SDS011;3230;42.588;23.358;2023-11-21T02:10:17;3.10;;;1.90;;
6394;SDS011;3230;42.588;23.358;2023-11-21T02:12:47;2.55;;;2.00;;
6394;SDS011;3230;42.588;23.358;2023-11-21T02:15:16;4.22;;;2.75;;
6394;SDS011;3230;42.588;23.358;2023-11-21T02:17:45;6.18;;;3.10;;
6394;SDS011;3230;42.588;23.358;2023-11-21T02:20:12;5.90;;;3.05;;
6394;SDS011;3230;42.588;23.358;2023-11-21T02:22:42;5.20;;;2.17;;
6394;SDS011;3230;42.588;23.358;2023-11-21T02:25:18;2.65;;;1.42;;
6394;SDS011;3230;42.588;23.358;2023-11-21T02:27:43;4.80;;;2.30;;
6394;SDS011;3230;42.588;23.358;2023-11-21T02:30:13;7.93;;;2.78;;
6394;SDS011;3230;42.588;23.358;2023-11-21T02:32:39;14.63;;;2.58;;
6394;SDS011;3230;42.588;23.358;2023-11-21T02:35:05;4.07;;;1.90;;
6394;SDS011;3230;42.588;23.358;2023-11-21T02:37:33;3.88;;;1.50;;
6394;SDS011;3230;42.588;23.358;2023-11-21T02:39:58;1.27;;;1.10;;
6394;SDS011;3230;42.588;23.358;2023-11-21T02:42:24;1.43;;;1.10;;
6394;SDS011;3230;42.588;23.358;2023-11-21T02:44:50;1.03;;;0.93;;
6394;SDS011;3230;42.588;23.358;2023-11-21T02:47:15;1.53;;;1.20;;
6394;SDS011;3230;42.588;23.358;2023-11-21T02:49:41;2.60;;;1.30;;
6394;SDS011;3230;42.588;23.358;2023-11-21T02:52:06;2.00;;;1.43;;
6394;SDS011;3230;42.588;23.358;2023-11-21T02:54:31;1.40;;;1.30;;
6394;SDS011;3230;42.588;23.358;2023-11-21T02:57:01;1.40;;;1.30;;
6394;SDS011;3230;42.588;23.358;2023-11-21T02:59:27;2.50;;;1.63;;
6394;SDS011;3230;42.588;23.358;2023-11-21T03:01:52;1.73;;;1.50;;
6394;SDS011;3230;42.588;23.358;2023-11-21T03:04:18;2.67;;;1.57;;
6394;SDS011;3230;42.588;23.358;2023-11-21T03:06:44;3.20;;;2.03;;
6394;SDS011;3230;42.588;23.358;2023-11-21T03:09:10;3.70;;;2.10;;
6394;SDS011;3230;42.588;23.358;2023-11-21T03:11:37;10.85;;;3.40;;
6394;SDS011;3230;42.588;23.358;2023-11-21T03:14:02;4.00;;;1.87;;
6394;SDS011;3230;42.588;23.358;2023-11-21T03:16:28;2.00;;;1.50;;
6394;SDS011;3230;42.588;23.358;2023-11-21T03:18:54;3.23;;;1.77;;
6394;SDS011;3230;42.588;23.358;2023-11-21T03:21:19;2.03;;;1.30;;
6394;SDS011;3230;42.588;23.358;2023-11-21T03:23:45;4.20;;;2.10;;
6394;SDS011;3230;42.588;23.358;2023-11-21T03:26:13;9.10;;;3.50;;
6394;SDS011;3230;42.588;23.358;2023-11-21T03:28:39;5.60;;;2.30;;
6394;SDS011;3230;42.588;23.358;2023-11-21T03:31:04;6.50;;;2.90;;
6394;SDS011;3230;42.588;23.358;2023-11-21T03:33:31;5.90;;;3.05;;
6394;SDS011;3230;42.588;23.358;2023-11-21T03:35:57;2.42;;;1.77;;
6394;SDS011;3230;42.588;23.358;2023-11-21T03:38:23;2.73;;;1.77;;
6394;SDS011;3230;42.588;23.358;2023-11-21T03:40:48;3.80;;;1.90;;
6394;SDS011;3230;42.588;23.358;2023-11-21T03:43:14;2.83;;;2.10;;
6394;SDS011;3230;42.588;23.358;2023-11-21T03:45:40;4.40;;;2.50;;
6394;SDS011;3230;42.588;23.358;2023-11-21T03:48:06;8.97;;;2.57;;
6394;SDS011;3230;42.588;23.358;2023-11-21T03:50:32;4.57;;;2.10;;
6394;SDS011;3230;42.588;23.358;2023-11-21T03:52:57;3.47;;;2.03;;
6394;SDS011;3230;42.588;23.358;2023-11-21T03:55:23;1.70;;;1.60;;
6394;SDS011;3230;42.588;23.358;2023-11-21T03:57:51;2.90;;;2.00;;
6394;SDS011;3230;42.588;23.358;2023-11-21T04:00:17;5.97;;;2.40;;
6394;SDS011;3230;42.588;23.358;2023-11-21T04:02:45;2.13;;;1.60;;
6394;SDS011;3230;42.588;23.358;2023-11-21T04:05:10;6.97;;;2.33;;
6394;SDS011;3230;42.588;23.358;2023-11-21T04:07:36;5.13;;;2.37;;
6394;SDS011;3230;42.588;23.358;2023-11-21T04:10:03;5.82;;;1.95;;
6394;SDS011;3230;42.588;23.358;2023-11-21T04:12:34;3.35;;;1.80;;
6394;SDS011;3230;42.588;23.358;2023-11-21T04:15:00;3.83;;;1.83;;
6394;SDS011;3230;42.588;23.358;2023-11-21T04:17:26;4.70;;;2.50;;
6394;SDS011;3230;42.588;23.358;2023-11-21T04:19:51;7.50;;;2.40;;
6394;SDS011;3230;42.588;23.358;2023-11-21T04:22:16;12.63;;;3.20;;
6394;SDS011;3230;42.588;23.358;2023-11-21T04:24:42;13.77;;;4.13;;
6394;SDS011;3230;42.588;23.358;2023-11-21T04:27:07;14.53;;;4.23;;
6394;SDS011;3230;42.588;23.358;2023-11-21T04:29:33;3.97;;;1.67;;
6394;SDS011;3230;42.588;23.358;2023-11-21T04:32:00;2.42;;;1.25;;
6394;SDS011;3230;42.588;23.358;2023-11-21T04:34:27;1.95;;;1.20;;
6394;SDS011;3230;42.588;23.358;2023-11-21T04:36:55;1.27;;;1.17;;
6394;SDS011;3230;42.588;23.358;2023-11-21T04:39:21;3.23;;;1.40;;
6394;SDS011;3230;42.588;23.358;2023-11-21T04:41:46;2.80;;;1.30;;
6394;SDS011;3230;42.588;23.358;2023-11-21T04:44:11;2.20;;;1.57;;
6394;SDS011;3230;42.588;23.358;2023-11-21T04:46:37;2.97;;;1.40;;
6394;SDS011;3230;42.588;23.358;2023-11-21T04:49:02;9.33;;;4.10;;
6394;SDS011;3230;42.588;23.358;2023-11-21T04:51:27;10.57;;;3.10;;
6394;SDS011;3230;42.588;23.358;2023-11-21T04:53:53;3.27;;;1.70;;
6394;SDS011;3230;42.588;23.358;2023-11-21T04:56:18;4.07;;;2.27;;
6394;SDS011;3230;42.588;23.358;2023-11-21T04:58:43;4.57;;;2.30;;
6394;SDS011;3230;42.588;23.358;2023-11-21T05:01:09;1.67;;;1.37;;
6394;SDS011;3230;42.588;23.358;2023-11-21T05:03:34;7.30;;;3.10;;
6394;SDS011;3230;42.588;23.358;2023-11-21T05:06:00;5.00;;;2.60;;
6394;SDS011;3230;42.588;23.358;2023-11-21T05:08:25;3.30;;;1.70;;
6394;SDS011;3230;42.588;23.358;2023-11-21T05:10:51;3.43;;;1.90;;
6394;SDS011;3230;42.588;23.358;2023-11-21T05:13:25;2.20;;;1.70;;
6394;SDS011;3230;42.588;23.358;2023-11-21T05:15:53;3.95;;;1.90;;
6394;SDS011;3230;42.588;23.358;2023-11-21T05:18:19;6.50;;;3.30;;
6394;SDS011;3230;42.588;23.358;2023-11-21T05:20:45;7.20;;;3.10;;
6394;SDS011;3230;42.588;23.358;2023-11-21T05:23:12;5.57;;;3.22;;
6394;SDS011;3230;42.588;23.358;2023-11-21T05:25:37;9.13;;;4.80;;
6394;SDS011;3230;42.588;23.358;2023-11-21T05:28:03;10.60;;;4.80;;
6394;SDS011;3230;42.588;23.358;2023-11-21T05:30:29;3.13;;;1.90;;
6394;SDS011;3230;42.588;23.358;2023-11-21T05:32:54;8.20;;;4.40;;
6394;SDS011;3230;42.588;23.358;2023-11-21T05:35:20;10.00;;;5.30;;
6394;SDS011;3230;42.588;23.358;2023-11-21T05:37:46;6.57;;;1.90;;
6394;SDS011;3230;42.588;23.358;2023-11-21T05:40:11;2.10;;;1.63;;
6394;SDS011;3230;42.588;23.358;2023-11-21T05:42:38;15.25;;;6.97;;
6394;SDS011;3230;42.588;23.358;2023-11-21T05:45:05;9.57;;;5.55;;
6394;SDS011;3230;42.588;23.358;2023-11-21T05:47:44;12.55;;;5.20;;
6394;SDS011;3230;42.588;23.358;2023-11-21T05:50:14;4.72;;;2.20;;
6394;SDS011;3230;42.588;23.358;2023-11-21T05:52:44;4.60;;;2.40;;
6394;SDS011;3230;42.588;23.358;2023-11-21T05:55:11;11.20;;;4.72;;
6394;SDS011;3230;42.588;23.358;2023-11-21T05:57:37;2.77;;;2.10;;
6394;SDS011;3230;42.588;23.358;2023-11-21T06:00:07;14.13;;;5.90;;
6394;SDS011;3230;42.588;23.358;2023-11-21T06:02:39;13.25;;;5.25;;
6394;SDS011;3230;42.588;23.358;2023-11-21T06:05:06;4.95;;;2.75;;
6394;SDS011;3230;42.588;23.358;2023-11-21T06:07:32;11.05;;;4.85;;
6394;SDS011;3230;42.588;23.358;2023-11-21T06:09:58;15.70;;;3.60;;
6394;SDS011;3230;42.588;23.358;2023-11-21T06:12:23;5.43;;;3.10;;
6394;SDS011;3230;42.588;23.358;2023-11-21T06:14:48;8.10;;;3.53;;
6394;SDS011;3230;42.588;23.358;2023-11-21T06:17:14;6.03;;;3.17;;
6394;SDS011;3230;42.588;23.358;2023-11-21T06:19:39;7.20;;;3.50;;
6394;SDS011;3230;42.588;23.358;2023-11-21T06:22:05;6.17;;;3.03;;
6394;SDS011;3230;42.588;23.358;2023-11-21T06:24:31;5.83;;;3.30;;
6394;SDS011;3230;42.588;23.358;2023-11-21T06:26:56;4.23;;;2.57;;
6394;SDS011;3230;42.588;23.358;2023-11-21T06:29:22;5.03;;;2.70;;
6394;SDS011;3230;42.588;23.358;2023-11-21T06:31:47;5.37;;;3.60;;
6394;SDS011;3230;42.588;23.358;2023-11-21T06:34:14;8.20;;;5.00;;
6394;SDS011;3230;42.588;23.358;2023-11-21T06:36:40;9.20;;;5.17;;
6394;SDS011;3230;42.588;23.358;2023-11-21T06:39:05;7.40;;;4.40;;
6394;SDS011;3230;42.588;23.358;2023-11-21T06:41:34;7.77;;;4.07;;
6394;SDS011;3230;42.588;23.358;2023-11-21T06:43:59;7.70;;;4.27;;
6394;SDS011;3230;42.588;23.358;2023-11-21T06:46:25;10.13;;;4.40;;
6394;SDS011;3230;42.588;23.358;2023-11-21T06:48:50;9.60;;;4.40;;
6394;SDS011;3230;42.588;23.358;2023-11-21T06:51:16;4.63;;;3.20;;
6394;SDS011;3230;42.588;23.358;2023-11-21T06:53:41;7.23;;;4.33;;
6394;SDS011;3230;42.588;23.358;2023-11-21T06:56:19;4.60;;;2.63;;
6394;SDS011;3230;42.588;23.358;2023-11-21T06:58:45;3.63;;;2.50;;
6394;SDS011;3230;42.588;23.358;2023-11-21T07:01:14;13.87;;;6.30;;
6394;SDS011;3230;42.588;23.358;2023-11-21T07:03:40;10.50;;;5.27;;
6394;SDS011;3230;42.588;23.358;2023-11-21T07:06:06;16.47;;;9.07;;
6394;SDS011;3230;42.588;23.358;2023-11-21T07:08:32;12.73;;;7.00;;
6394;SDS011;3230;42.588;23.358;2023-11-21T07:10:58;8.27;;;4.43;;
6394;SDS011;3230;42.588;23.358;2023-11-21T07:13:23;5.53;;;3.00;;
6394;SDS011;3230;42.588;23.358;2023-11-21T07:15:49;11.73;;;5.53;;
6394;SDS011;3230;42.588;23.358;2023-11-21T07:18:14;20.27;;;10.10;;
6394;SDS011;3230;42.588;23.358;2023-11-21T07:20:40;16.77;;;8.20;;
6394;SDS011;3230;42.588;23.358;2023-11-21T07:23:05;17.47;;;9.73;;
6394;SDS011;3230;42.588;23.358;2023-11-21T07:25:31;45.80;;;22.20;;
6394;SDS011;3230;42.588;23.358;2023-11-21T07:27:58;29.90;;;16.40;;
6394;SDS011;3230;42.588;23.358;2023-11-21T07:30:24;28.77;;;14.80;;
6394;SDS011;3230;42.588;23.358;2023-11-21T07:32:49;14.67;;;8.90;;
6394;SDS011;3230;42.588;23.358;2023-11-21T07:35:15;26.30;;;13.20;;
6394;SDS011;3230;42.588;23.358;2023-11-21T07:37:41;10.80;;;6.60;;
6394;SDS011;3230;42.588;23.358;2023-11-21T07:40:08;27.63;;;7.80;;
6394;SDS011;3230;42.588;23.358;2023-11-21T07:42:36;8.23;;;5.10;;
6394;SDS011;3230;42.588;23.358;2023-11-21T07:45:02;10.37;;;5.60;;
6394;SDS011;3230;42.588;23.358;2023-11-21T07:47:28;14.07;;;8.17;;
6394;SDS011;3230;42.588;23.358;2023-11-21T07:49:53;10.30;;;6.00;;
6394;SDS011;3230;42.588;23.358;2023-11-21T07:52:20;13.20;;;6.90;;
6394;SDS011;3230;42.588;23.358;2023-11-21T07:54:46;9.67;;;5.50;;
6394;SDS011;3230;42.588;23.358;2023-11-21T07:57:12;15.67;;;6.33;;
6394;SDS011;3230;42.588;23.358;2023-11-21T07:59:38;11.93;;;5.40;;
6394;SDS011;3230;42.588;23.358;2023-11-21T08:02:06;11.10;;;6.03;;
6394;SDS011;3230;42.588;23.358;2023-11-21T08:04:31;14.13;;;6.63;;
6394;SDS011;3230;42.588;23.358;2023-11-21T08:06:57;11.53;;;5.53;;
6394;SDS011;3230;42.588;23.358;2023-11-21T08:09:22;8.87;;;4.93;;
6394;SDS011;3230;42.588;23.358;2023-11-21T08:11:48;11.30;;;5.43;;
6394;SDS011;3230;42.588;23.358;2023-11-21T08:14:14;12.00;;;6.63;;
6394;SDS011;3230;42.588;23.358;2023-11-21T08:16:40;14.50;;;7.90;;
6394;SDS011;3230;42.588;23.358;2023-11-21T08:19:05;9.27;;;5.70;;
6394;SDS011;3230;42.588;23.358;2023-11-21T08:21:31;9.27;;;5.97;;
6394;SDS011;3230;42.588;23.358;2023-11-21T08:23:56;9.07;;;5.30;;
6394;SDS011;3230;42.588;23.358;2023-11-21T08:26:22;6.23;;;4.70;;
6394;SDS011;3230;42.588;23.358;2023-11-21T08:28:48;7.73;;;4.47;;
6394;SDS011;3230;42.588;23.358;2023-11-21T08:31:14;9.00;;;5.20;;
6394;SDS011;3230;42.588;23.358;2023-11-21T08:33:39;5.00;;;3.50;;
6394;SDS011;3230;42.588;23.358;2023-11-21T08:36:08;4.10;;;2.60;;
6394;SDS011;3230;42.588;23.358;2023-11-21T08:38:35;5.10;;;3.13;;
6394;SDS011;3230;42.588;23.358;2023-11-21T08:41:03;3.20;;;2.47;;
6394;SDS011;3230;42.588;23.358;2023-11-21T08:43:32;2.93;;;2.10;;
6394;SDS011;3230;42.588;23.358;2023-11-21T08:46:04;5.20;;;2.20;;
6394;SDS011;3230;42.588;23.358;2023-11-21T08:48:31;3.33;;;1.73;;
6394;SDS011;3230;42.588;23.358;2023-11-21T08:50:56;2.60;;;1.70;;
6394;SDS011;3230;42.588;23.358;2023-11-21T08:53:22;11.33;;;3.23;;
6394;SDS011;3230;42.588;23.358;2023-11-21T08:55:47;6.13;;;3.10;;
6394;SDS011;3230;42.588;23.358;2023-11-21T08:58:15;4.23;;;2.10;;
6394;SDS011;3230;42.588;23.358;2023-11-21T09:00:40;5.53;;;2.63;;
6394;SDS011;3230;42.588;23.358;2023-11-21T09:03:06;4.63;;;2.43;;
6394;SDS011;3230;42.588;23.358;2023-11-21T09:05:33;3.43;;;1.97;;
6394;SDS011;3230;42.588;23.358;2023-11-21T09:07:59;2.60;;;1.73;;
6394;SDS011;3230;42.588;23.358;2023-11-21T09:10:32;5.33;;;3.47;;
6394;SDS011;3230;42.588;23.358;2023-11-21T09:13:00;7.83;;;3.67;;
6394;SDS011;3230;42.588;23.358;2023-11-21T09:15:26;7.70;;;4.40;;
6394;SDS011;3230;42.588;23.358;2023-11-21T09:17:52;8.17;;;4.50;;
6394;SDS011;3230;42.588;23.358;2023-11-21T09:20:18;7.27;;;4.70;;
6394;SDS011;3230;42.588;23.358;2023-11-21T09:22:46;9.00;;;4.23;;
6394;SDS011;3230;42.588;23.358;2023-11-21T09:25:12;5.60;;;3.30;;
6394;SDS011;3230;42.588;23.358;2023-11-21T09:27:43;5.80;;;2.63;;
6394;SDS011;3230;42.588;23.358;2023-11-21T09:30:08;3.80;;;2.20;;
6394;SDS011;3230;42.588;23.358;2023-11-21T09:32:35;5.10;;;2.67;;
6394;SDS011;3230;42.588;23.358;2023-11-21T09:35:02;6.37;;;3.30;;
6394;SDS011;3230;42.588;23.358;2023-11-21T09:37:28;6.10;;;3.10;;
6394;SDS011;3230;42.588;23.358;2023-11-21T09:39:55;7.93;;;4.63;;
6394;SDS011;3230;42.588;23.358;2023-11-21T09:42:23;5.00;;;3.33;;
6394;SDS011;3230;42.588;23.358;2023-11-21T09:58:54;3.60;;;2.67;;
6394;SDS011;3230;42.588;23.358;2023-11-21T10:01:31;4.47;;;2.50;;
6394;SDS011;3230;42.588;23.358;2023-11-21T10:03:57;3.60;;;2.67;;
6394;SDS011;3230;42.588;23.358;2023-11-21T10:06:22;11.13;;;4.70;;
6394;SDS011;3230;42.588;23.358;2023-11-21T10:08:52;6.20;;;4.17;;
6394;SDS011;3230;42.588;23.358;2023-11-21T10:11:19;8.73;;;3.77;;
6394;SDS011;3230;42.588;23.358;2023-11-21T10:13:49;8.47;;;4.40;;
6394;SDS011;3230;42.588;23.358;2023-11-21T10:16:19;8.00;;;5.37;;
6394;SDS011;3230;42.588;23.358;2023-11-21T10:18:46;8.67;;;5.10;;
6394;SDS011;3230;42.588;23.358;2023-11-21T10:21:17;4.60;;;2.80;;
6394;SDS011;3230;42.588;23.358;2023-11-21T10:23:43;3.63;;;2.50;;
6394;SDS011;3230;42.588;23.358;2023-11-21T10:26:09;4.30;;;2.47;;
6394;SDS011;3230;42.588;23.358;2023-11-21T10:28:41;4.37;;;3.00;;
6394;SDS011;3230;42.588;23.358;2023-11-21T10:31:29;2.70;;;1.97;;
6394;SDS011;3230;42.588;23.358;2023-11-21T10:33:57;5.50;;;2.73;;
6394;SDS011;3230;42.588;23.358;2023-11-21T10:36:41;8.90;;;5.10;;
6394;SDS011;3230;42.588;23.358;2023-11-21T10:39:07;4.63;;;3.20;;
6394;SDS011;3230;42.588;23.358;2023-11-21T10:41:33;6.37;;;3.83;;
6394;SDS011;3230;42.588;23.358;2023-11-21T10:44:00;6.30;;;3.77;;
6394;SDS011;3230;42.588;23.358;2023-11-21T10:46:29;6.20;;;4.27;;
6394;SDS011;3230;42.588;23.358;2023-11-21T10:48:55;7.40;;;4.83;;
6394;SDS011;3230;42.588;23.358;2023-11-21T10:51:21;15.63;;;5.13;;
6394;SDS011;3230;42.588;23.358;2023-11-21T10:53:47;7.60;;;4.60;;
6394;SDS011;3230;42.588;23.358;2023-11-21T10:56:15;13.10;;;5.97;;
6394;SDS011;3230;42.588;23.358;2023-11-21T10:58:45;10.17;;;6.07;;
6394;SDS011;3230;42.588;23.358;2023-11-21T11:01:10;13.43;;;6.37;;
6394;SDS011;3230;42.588;23.358;2023-11-21T11:03:37;12.60;;;5.73;;
6394;SDS011;3230;42.588;23.358;2023-11-21T11:06:04;7.90;;;4.67;;
6394;SDS011;3230;42.588;23.358;2023-11-21T11:08:32;11.83;;;5.60;;
6394;SDS011;3230;42.588;23.358;2023-11-21T11:11:00;7.73;;;5.00;;
6394;SDS011;3230;42.588;23.358;2023-11-21T11:13:26;5.17;;;3.40;;
6394;SDS011;3230;42.588;23.358;2023-11-21T11:15:51;6.87;;;3.90;;
6394;SDS011;3230;42.588;23.358;2023-11-21T11:18:25;8.53;;;4.03;;
6394;SDS011;3230;42.588;23.358;2023-11-21T11:20:51;9.20;;;2.97;;
6394;SDS011;3230;42.588;23.358;2023-11-21T11:23:32;10.43;;;6.40;;
6394;SDS011;3230;42.588;23.358;2023-11-21T11:28:54;11.83;;;6.83;;
6394;SDS011;3230;42.588;23.358;2023-11-21T11:31:47;10.97;;;6.47;;
6394;SDS011;3230;42.588;23.358;2023-11-21T11:34:29;14.33;;;8.90;;
6394;SDS011;3230;42.588;23.358;2023-11-21T11:37:16;20.40;;;7.70;;
6394;SDS011;3230;42.588;23.358;2023-11-21T11:39:42;13.83;;;7.23;;
6394;SDS011;3230;42.588;23.358;2023-11-21T11:42:12;11.77;;;6.53;;
6394;SDS011;3230;42.588;23.358;2023-11-21T11:47:27;10.53;;;6.60;;
6394;SDS011;3230;42.588;23.358;2023-11-21T11:50:04;15.47;;;6.30;;
6394;SDS011;3230;42.588;23.358;2023-11-21T11:52:51;12.30;;;6.60;;
6394;SDS011;3230;42.588;23.358;2023-11-21T11:55:20;13.37;;;7.70;;
6394;SDS011;3230;42.588;23.358;2023-11-21T11:57:47;15.80;;;6.80;;
6394;SDS011;3230;42.588;23.358;2023-11-21T12:02:54;16.13;;;7.90;;
6394;SDS011;3230;42.588;23.358;2023-11-21T12:05:25;13.20;;;7.00;;
6394;SDS011;3230;42.588;23.358;2023-11-21T12:07:54;10.70;;;6.70;;
6394;SDS011;3230;42.588;23.358;2023-11-21T12:10:23;14.10;;;7.70;;
6394;SDS011;3230;42.588;23.358;2023-11-21T12:12:59;24.67;;;9.80;;
6394;SDS011;3230;42.588;23.358;2023-11-21T12:15:26;19.70;;;8.37;;
6394;SDS011;3230;42.588;23.358;2023-11-21T12:17:55;17.97;;;8.10;;
6394;SDS011;3230;42.588;23.358;2023-11-21T12:20:23;19.03;;;10.30;;
6394;SDS011;3230;42.588;23.358;2023-11-21T12:22:50;17.10;;;9.60;;
6394;SDS011;3230;42.588;23.358;2023-11-21T12:25:20;16.57;;;8.73;;
6394;SDS011;3230;42.588;23.358;2023-11-21T12:27:49;20.33;;;8.90;;
6394;SDS011;3230;42.588;23.358;2023-11-21T12:30:16;16.37;;;8.90;;
6394;SDS011;3230;42.588;23.358;2023-11-21T12:32:44;18.10;;;7.20;;
6394;SDS011;3230;42.588;23.358;2023-11-21T12:35:11;14.17;;;7.20;;
6394;SDS011;3230;42.588;23.358;2023-11-21T12:37:41;15.87;;;7.87;;
6394;SDS011;3230;42.588;23.358;2023-11-21T12:40:09;9.03;;;5.33;;
6394;SDS011;3230;42.588;23.358;2023-11-21T12:42:46;9.90;;;5.13;;
6394;SDS011;3230;42.588;23.358;2023-11-21T12:47:43;15.13;;;8.80;;
6394;SDS011;3230;42.588;23.358;2023-11-21T12:50:10;18.10;;;9.57;;
6394;SDS011;3230;42.588;23.358;2023-11-21T12:52:42;20.30;;;10.70;;
6394;SDS011;3230;42.588;23.358;2023-11-21T12:55:16;19.10;;;9.63;;
6394;SDS011;3230;42.588;23.358;2023-11-21T12:57:43;18.57;;;9.50;;
6394;SDS011;3230;42.588;23.358;2023-11-21T13:00:10;18.50;;;9.37;;
6394;SDS011;3230;42.588;23.358;2023-11-21T13:02:49;21.17;;;11.57;;
6394;SDS011;3230;42.588;23.358;2023-11-21T13:08:01;21.33;;;11.60;;
6394;SDS011;3230;42.588;23.358;2023-11-21T13:10:29;19.97;;;11.60;;
6394;SDS011;3230;42.588;23.358;2023-11-21T13:12:58;20.70;;;11.03;;
6394;SDS011;3230;42.588;23.358;2023-11-21T13:15:30;24.77;;;11.93;;
6394;SDS011;3230;42.588;23.358;2023-11-21T13:17:58;27.83;;;10.73;;
6394;SDS011;3230;42.588;23.358;2023-11-21T13:20:26;26.63;;;10.93;;
6394;SDS011;3230;42.588;23.358;2023-11-21T13:22:53;17.87;;;10.77;;
6394;SDS011;3230;42.588;23.358;2023-11-21T13:25:22;20.33;;;10.50;;
6394;SDS011;3230;42.588;23.358;2023-11-21T13:27:48;25.27;;;10.87;;
6394;SDS011;3230;42.588;23.358;2023-11-21T13:30:13;17.30;;;10.07;;
6394;SDS011;3230;42.588;23.358;2023-11-21T13:32:44;22.33;;;11.63;;
6394;SDS011;3230;42.588;23.358;2023-11-21T13:35:16;24.50;;;13.50;;
6394;SDS011;3230;42.588;23.358;2023-11-21T13:37:55;27.87;;;15.00;;
6394;SDS011;3230;42.588;23.358;2023-11-21T13:40:24;33.67;;;16.10;;
6394;SDS011;3230;42.588;23.358;2023-11-21T13:42:51;23.00;;;14.20;;
6394;SDS011;3230;42.588;23.358;2023-11-21T13:45:23;31.57;;;17.00;;
6394;SDS011;3230;42.588;23.358;2023-11-21T13:47:50;30.10;;;14.40;;
6394;SDS011;3230;42.588;23.358;2023-11-21T13:50:18;22.87;;;13.90;;
6394;SDS011;3230;42.588;23.358;2023-11-21T13:52:48;25.63;;;14.27;;
6394;SDS011;3230;42.588;23.358;2023-11-21T13:55:14;25.57;;;13.60;;
6394;SDS011;3230;42.588;23.358;2023-11-21T13:57:44;35.07;;;18.37;;
6394;SDS011;3230;42.588;23.358;2023-11-21T14:00:14;47.30;;;23.40;;
6394;SDS011;3230;42.588;23.358;2023-11-21T14:02:59;38.63;;;18.60;;
6394;SDS011;3230;42.588;23.358;2023-11-21T14:05:26;45.77;;;22.37;;
6394;SDS011;3230;42.588;23.358;2023-11-21T14:07:54;29.40;;;16.67;;
6394;SDS011;3230;42.588;23.358;2023-11-21T14:10:32;33.37;;;17.70;;
6394;SDS011;3230;42.588;23.358;2023-11-21T14:13:08;31.43;;;15.30;;
6394;SDS011;3230;42.588;23.358;2023-11-21T14:15:44;37.73;;;15.77;;
6394;SDS011;3230;42.588;23.358;2023-11-21T14:18:11;28.97;;;15.27;;
6394;SDS011;3230;42.588;23.358;2023-11-21T14:20:39;35.83;;;18.97;;
6394;SDS011;3230;42.588;23.358;2023-11-21T14:23:06;31.73;;;17.60;;
6394;SDS011;3230;42.588;23.358;2023-11-21T14:25:35;32.73;;;15.73;;
6394;SDS011;3230;42.588;23.358;2023-11-21T14:28:02;33.47;;;17.53;;
6394;SDS011;3230;42.588;23.358;2023-11-21T14:30:28;37.73;;;18.60;;
6394;SDS011;3230;42.588;23.358;2023-11-21T14:32:57;31.43;;;17.10;;
6394;SDS011;3230;42.588;23.358;2023-11-21T14:35:23;47.27;;;16.70;;
6394;SDS011;3230;42.588;23.358;2023-11-21T14:37:48;34.67;;;16.57;;
6394;SDS011;3230;42.588;23.358;2023-11-21T14:40:14;30.37;;;14.80;;
6394;SDS011;3230;42.588;23.358;2023-11-21T14:42:41;42.60;;;21.40;;
6394;SDS011;3230;42.588;23.358;2023-11-21T14:45:08;41.03;;;18.50;;
6394;SDS011;3230;42.588;23.358;2023-11-21T14:47:37;27.97;;;12.43;;
6394;SDS011;3230;42.588;23.358;2023-11-21T14:50:07;77.87;;;32.57;;
6394;SDS011;3230;42.588;23.358;2023-11-21T14:52:52;76.03;;;32.47;;
6394;SDS011;3230;42.588;23.358;2023-11-21T14:55:24;73.80;;;34.00;;
6394;SDS011;3230;42.588;23.358;2023-11-21T14:58:18;59.53;;;27.80;;
6394;SDS011;3230;42.588;23.358;2023-11-21T15:00:53;20.97;;;12.47;;
6394;SDS011;3230;42.588;23.358;2023-11-21T15:03:26;24.60;;;10.60;;
6394;SDS011;3230;42.588;23.358;2023-11-21T15:05:59;20.60;;;10.17;;
6394;SDS011;3230;42.588;23.358;2023-11-21T15:08:54;17.87;;;10.77;;
6394;SDS011;3230;42.588;23.358;2023-11-21T15:11:33;22.60;;;12.17;;
6394;SDS011;3230;42.588;23.358;2023-11-21T15:13:59;26.27;;;10.87;;
6394;SDS011;3230;42.588;23.358;2023-11-21T15:16:25;92.50;;;32.50;;
6394;SDS011;3230;42.588;23.358;2023-11-21T15:18:51;55.63;;;26.20;;
6394;SDS011;3230;42.588;23.358;2023-11-21T15:21:18;66.40;;;27.83;;
6394;SDS011;3230;42.588;23.358;2023-11-21T15:23:46;180.67;;;77.37;;